sensor_id;sensor_type;location;lat;lon;timestamp;P1;durP1;ratioP1;P2;durP2;ratioP2
75758;SDS011;64371;47.566;19.086;2022-10-16T00:00:41;4.43;;;4.03;;
75758;SDS011;64371;47.566;19.086;2022-10-16T00:03:44;5.13;;;4.00;;
75758;SDS011;64371;47.566;19.086;2022-10-16T00:06:48;4.25;;;3.85;;
75758;SDS011;64371;47.566;19.086;2022-10-16T00:09:50;5.03;;;4.10;;
75758;SDS011;64371;47.566;19.086;2022-10-16T00:12:52;4.47;;;4.00;;
75758;SDS011;64371;47.566;19.086;2022-10-16T00:15:56;4.30;;;3.90;;
75758;SDS011;64371;47.566;19.086;2022-10-16T00:18:59;4.43;;;3.70;;
75758;SDS011;64371;47.566;19.086;2022-10-16T00:22:01;5.43;;;4.18;;
75758;SDS011;64371;47.566;19.086;2022-10-16T00:25:03;4.50;;;4.03;;
75758;SDS011;64371;47.566;19.086;2022-10-16T00:28:06;4.93;;;3.93;;
75758;SDS011;64371;47.566;19.086;2022-10-16T00:31:09;4.80;;;4.20;;
75758;SDS011;64371;47.566;19.086;2022-10-16T00:34:12;4.95;;;4.30;;
75758;SDS011;64371;47.566;19.086;2022-10-16T00:37:15;6.13;;;4.10;;
75758;SDS011;64371;47.566;19.086;2022-10-16T00:40:17;4.78;;;3.80;;
75758;SDS011;64371;47.566;19.086;2022-10-16T00:43:33;5.07;;;3.83;;
75758;SDS011;64371;47.566;19.086;2022-10-16T00:46:43;4.68;;;4.00;;
75758;SDS011;64371;47.566;19.086;2022-10-16T00:49:46;4.70;;;4.10;;
75758;SDS011;64371;47.566;19.086;2022-10-16T00:52:50;4.32;;;3.92;;
75758;SDS011;64371;47.566;19.086;2022-10-16T00:55:54;4.50;;;4.03;;
75758;SDS011;64371;47.566;19.086;2022-10-16T00:58:57;4.77;;;4.13;;
75758;SDS011;64371;47.566;19.086;2022-10-16T01:02:02;4.03;;;3.63;;
75758;SDS011;64371;47.566;19.086;2022-10-16T01:05:05;4.38;;;3.70;;
75758;SDS011;64371;47.566;19.086;2022-10-16T01:11:29;4.75;;;4.07;;
75758;SDS011;64371;47.566;19.086;2022-10-16T01:21:47;4.60;;;3.90;;
75758;SDS011;64371;47.566;19.086;2022-10-16T01:24:53;4.35;;;3.95;;
75758;SDS011;64371;47.566;19.086;2022-10-16T01:27:59;5.22;;;4.07;;
75758;SDS011;64371;47.566;19.086;2022-10-16T01:31:04;4.13;;;3.50;;
75758;SDS011;64371;47.566;19.086;2022-10-16T01:34:18;4.22;;;3.83;;
75758;SDS011;64371;47.566;19.086;2022-10-16T01:40:36;4.32;;;3.92;;
75758;SDS011;64371;47.566;19.086;2022-10-16T01:43:43;4.43;;;3.80;;
75758;SDS011;64371;47.566;19.086;2022-10-16T01:46:49;4.00;;;3.60;;
75758;SDS011;64371;47.566;19.086;2022-10-16T01:49:54;5.07;;;4.10;;
75758;SDS011;64371;47.566;19.086;2022-10-16T01:52:58;4.22;;;3.83;;
75758;SDS011;64371;47.566;19.086;2022-10-16T01:56:05;4.10;;;3.70;;
75758;SDS011;64371;47.566;19.086;2022-10-16T01:59:15;4.57;;;4.05;;
75758;SDS011;64371;47.566;19.086;2022-10-16T02:02:20;4.90;;;4.17;;
75758;SDS011;64371;47.566;19.086;2022-10-16T02:05:26;4.30;;;3.85;;
75758;SDS011;64371;47.566;19.086;2022-10-16T02:08:33;4.80;;;4.05;;
75758;SDS011;64371;47.566;19.086;2022-10-16T02:11:35;4.30;;;3.90;;
75758;SDS011;64371;47.566;19.086;2022-10-16T02:14:38;4.75;;;4.03;;
75758;SDS011;64371;47.566;19.086;2022-10-16T02:17:41;5.03;;;4.13;;
75758;SDS011;64371;47.566;19.086;2022-10-16T02:20:55;4.05;;;3.65;;
75758;SDS011;64371;47.566;19.086;2022-10-16T02:27:35;5.38;;;4.10;;
75758;SDS011;64371;47.566;19.086;2022-10-16T02:30:58;4.80;;;4.28;;
75758;SDS011;64371;47.566;19.086;2022-10-16T02:34:05;4.70;;;3.80;;
75758;SDS011;64371;47.566;19.086;2022-10-16T02:37:08;4.38;;;3.97;;
75758;SDS011;64371;47.566;19.086;2022-10-16T02:40:12;4.55;;;3.92;;
75758;SDS011;64371;47.566;19.086;2022-10-16T02:43:15;4.45;;;4.03;;
75758;SDS011;64371;47.566;19.086;2022-10-16T02:46:18;4.72;;;4.05;;
75758;SDS011;64371;47.566;19.086;2022-10-16T02:49:20;4.53;;;3.90;;
75758;SDS011;64371;47.566;19.086;2022-10-16T02:52:22;4.78;;;4.00;;
75758;SDS011;64371;47.566;19.086;2022-10-16T02:55:25;4.25;;;3.85;;
75758;SDS011;64371;47.566;19.086;2022-10-16T02:58:29;4.53;;;4.13;;
75758;SDS011;64371;47.566;19.086;2022-10-16T03:01:31;4.20;;;3.72;;
75758;SDS011;64371;47.566;19.086;2022-10-16T03:04:38;4.70;;;4.20;;
75758;SDS011;64371;47.566;19.086;2022-10-16T03:07:40;4.30;;;3.80;;
75758;SDS011;64371;47.566;19.086;2022-10-16T03:10:42;4.45;;;4.05;;
75758;SDS011;64371;47.566;19.086;2022-10-16T03:13:44;4.18;;;3.65;;
75758;SDS011;64371;47.566;19.086;2022-10-16T03:16:46;4.82;;;4.15;;
75758;SDS011;64371;47.566;19.086;2022-10-16T03:19:49;4.83;;;4.13;;
75758;SDS011;64371;47.566;19.086;2022-10-16T03:22:51;4.00;;;3.60;;
75758;SDS011;64371;47.566;19.086;2022-10-16T03:25:53;4.70;;;3.80;;
75758;SDS011;64371;47.566;19.086;2022-10-16T03:28:55;4.40;;;4.00;;
75758;SDS011;64371;47.566;19.086;2022-10-16T03:31:58;4.97;;;3.67;;
75758;SDS011;64371;47.566;19.086;2022-10-16T03:35:01;5.93;;;3.90;;
75758;SDS011;64371;47.566;19.086;2022-10-16T03:38:04;4.85;;;4.35;;
75758;SDS011;64371;47.566;19.086;2022-10-16T03:41:06;4.15;;;3.70;;
75758;SDS011;64371;47.566;19.086;2022-10-16T03:44:09;4.28;;;3.80;;
75758;SDS011;64371;47.566;19.086;2022-10-16T03:47:11;3.90;;;3.50;;
75758;SDS011;64371;47.566;19.086;2022-10-16T03:50:13;4.83;;;4.07;;
75758;SDS011;64371;47.566;19.086;2022-10-16T03:53:16;4.45;;;3.92;;
75758;SDS011;64371;47.566;19.086;2022-10-16T03:56:18;4.70;;;4.10;;
75758;SDS011;64371;47.566;19.086;2022-10-16T03:59:20;5.75;;;4.10;;
75758;SDS011;64371;47.566;19.086;2022-10-16T04:02:22;4.07;;;3.67;;
75758;SDS011;64371;47.566;19.086;2022-10-16T04:05:25;4.60;;;3.80;;
75758;SDS011;64371;47.566;19.086;2022-10-16T04:08:27;4.28;;;3.88;;
75758;SDS011;64371;47.566;19.086;2022-10-16T04:11:29;4.40;;;3.75;;
75758;SDS011;64371;47.566;19.086;2022-10-16T04:14:37;5.00;;;3.88;;
75758;SDS011;64371;47.566;19.086;2022-10-16T04:17:39;4.35;;;3.83;;
75758;SDS011;64371;47.566;19.086;2022-10-16T04:20:42;3.60;;;3.30;;
75758;SDS011;64371;47.566;19.086;2022-10-16T04:23:44;4.50;;;3.78;;
75758;SDS011;64371;47.566;19.086;2022-10-16T04:26:46;4.53;;;3.70;;
75758;SDS011;64371;47.566;19.086;2022-10-16T04:29:48;4.40;;;4.00;;
75758;SDS011;64371;47.566;19.086;2022-10-16T04:32:51;4.55;;;3.60;;
75758;SDS011;64371;47.566;19.086;2022-10-16T04:35:57;4.03;;;3.63;;
75758;SDS011;64371;47.566;19.086;2022-10-16T04:39:01;4.03;;;3.50;;
75758;SDS011;64371;47.566;19.086;2022-10-16T04:42:03;4.20;;;3.50;;
75758;SDS011;64371;47.566;19.086;2022-10-16T04:45:06;3.97;;;3.38;;
75758;SDS011;64371;47.566;19.086;2022-10-16T04:48:15;3.90;;;3.50;;
75758;SDS011;64371;47.566;19.086;2022-10-16T04:51:17;4.30;;;3.90;;
75758;SDS011;64371;47.566;19.086;2022-10-16T04:54:20;4.10;;;3.60;;
75758;SDS011;64371;47.566;19.086;2022-10-16T04:57:22;3.90;;;3.50;;
75758;SDS011;64371;47.566;19.086;2022-10-16T05:00:25;3.95;;;3.55;;
75758;SDS011;64371;47.566;19.086;2022-10-16T05:03:27;4.90;;;3.80;;
75758;SDS011;64371;47.566;19.086;2022-10-16T05:06:34;4.37;;;3.60;;
75758;SDS011;64371;47.566;19.086;2022-10-16T05:09:37;3.35;;;3.05;;
75758;SDS011;64371;47.566;19.086;2022-10-16T05:12:39;3.80;;;3.35;;
75758;SDS011;64371;47.566;19.086;2022-10-16T05:15:41;4.00;;;3.60;;
75758;SDS011;64371;47.566;19.086;2022-10-16T05:18:44;3.80;;;3.40;;
75758;SDS011;64371;47.566;19.086;2022-10-16T05:21:46;4.40;;;3.67;;
75758;SDS011;64371;47.566;19.086;2022-10-16T05:24:48;3.67;;;3.30;;
75758;SDS011;64371;47.566;19.086;2022-10-16T05:27:50;3.80;;;3.40;;
75758;SDS011;64371;47.566;19.086;2022-10-16T05:30:53;4.20;;;3.65;;
75758;SDS011;64371;47.566;19.086;2022-10-16T05:33:59;3.75;;;3.38;;
75758;SDS011;64371;47.566;19.086;2022-10-16T05:37:01;4.07;;;3.50;;
75758;SDS011;64371;47.566;19.086;2022-10-16T05:40:04;4.75;;;3.58;;
75758;SDS011;64371;47.566;19.086;2022-10-16T05:43:06;4.28;;;3.88;;
75758;SDS011;64371;47.566;19.086;2022-10-16T05:46:09;3.75;;;3.40;;
75758;SDS011;64371;47.566;19.086;2022-10-16T05:49:11;4.60;;;3.50;;
75758;SDS011;64371;47.566;19.086;2022-10-16T05:52:13;3.90;;;3.50;;
75758;SDS011;64371;47.566;19.086;2022-10-16T05:55:15;4.13;;;3.60;;
75758;SDS011;64371;47.566;19.086;2022-10-16T05:58:17;4.90;;;3.60;;
75758;SDS011;64371;47.566;19.086;2022-10-16T06:01:19;4.68;;;3.90;;
75758;SDS011;64371;47.566;19.086;2022-10-16T06:04:26;3.70;;;3.40;;
75758;SDS011;64371;47.566;19.086;2022-10-16T06:07:28;3.87;;;3.40;;
75758;SDS011;64371;47.566;19.086;2022-10-16T06:10:30;4.00;;;3.60;;
75758;SDS011;64371;47.566;19.086;2022-10-16T06:13:32;4.22;;;3.65;;
75758;SDS011;64371;47.566;19.086;2022-10-16T06:16:35;3.70;;;3.30;;
75758;SDS011;64371;47.566;19.086;2022-10-16T06:19:38;3.70;;;3.30;;
75758;SDS011;64371;47.566;19.086;2022-10-16T06:22:41;4.10;;;3.70;;
75758;SDS011;64371;47.566;19.086;2022-10-16T06:25:43;4.10;;;3.70;;
75758;SDS011;64371;47.566;19.086;2022-10-16T06:28:45;3.72;;;3.33;;
75758;SDS011;64371;47.566;19.086;2022-10-16T06:31:48;3.67;;;3.38;;
75758;SDS011;64371;47.566;19.086;2022-10-16T06:34:50;4.00;;;3.60;;
75758;SDS011;64371;47.566;19.086;2022-10-16T06:37:53;4.00;;;3.60;;
75758;SDS011;64371;47.566;19.086;2022-10-16T06:40:55;3.47;;;3.17;;
75758;SDS011;64371;47.566;19.086;2022-10-16T06:43:57;3.80;;;3.40;;
75758;SDS011;64371;47.566;19.086;2022-10-16T06:46:59;3.97;;;3.58;;
75758;SDS011;64371;47.566;19.086;2022-10-16T06:50:02;4.32;;;3.70;;
75758;SDS011;64371;47.566;19.086;2022-10-16T06:53:05;3.90;;;3.40;;
75758;SDS011;64371;47.566;19.086;2022-10-16T06:56:08;3.83;;;3.42;;
75758;SDS011;64371;47.566;19.086;2022-10-16T06:59:12;4.00;;;3.67;;
75758;SDS011;64371;47.566;19.086;2022-10-16T07:02:14;3.97;;;3.53;;
75758;SDS011;64371;47.566;19.086;2022-10-16T07:05:17;4.00;;;3.60;;
75758;SDS011;64371;47.566;19.086;2022-10-16T07:08:19;3.80;;;3.30;;
75758;SDS011;64371;47.566;19.086;2022-10-16T07:11:22;4.10;;;3.53;;
75758;SDS011;64371;47.566;19.086;2022-10-16T07:14:25;3.75;;;3.35;;
75758;SDS011;64371;47.566;19.086;2022-10-16T07:17:27;4.15;;;3.75;;
75758;SDS011;64371;47.566;19.086;2022-10-16T07:20:29;3.80;;;3.50;;
75758;SDS011;64371;47.566;19.086;2022-10-16T07:23:31;3.93;;;3.50;;
75758;SDS011;64371;47.566;19.086;2022-10-16T07:26:34;4.18;;;3.78;;
75758;SDS011;64371;47.566;19.086;2022-10-16T07:29:38;3.95;;;3.42;;
75758;SDS011;64371;47.566;19.086;2022-10-16T07:32:40;4.35;;;3.38;;
75758;SDS011;64371;47.566;19.086;2022-10-16T07:35:49;4.63;;;3.65;;
75758;SDS011;64371;47.566;19.086;2022-10-16T07:38:55;3.67;;;3.23;;
75758;SDS011;64371;47.566;19.086;2022-10-16T07:42:01;3.80;;;3.40;;
75758;SDS011;64371;47.566;19.086;2022-10-16T07:45:03;3.83;;;3.47;;
75758;SDS011;64371;47.566;19.086;2022-10-16T07:48:06;3.80;;;3.40;;
75758;SDS011;64371;47.566;19.086;2022-10-16T07:51:08;4.97;;;3.85;;
75758;SDS011;64371;47.566;19.086;2022-10-16T07:54:11;4.07;;;3.47;;
75758;SDS011;64371;47.566;19.086;2022-10-16T07:57:13;4.85;;;3.83;;
75758;SDS011;64371;47.566;19.086;2022-10-16T08:00:21;4.05;;;3.38;;
75758;SDS011;64371;47.566;19.086;2022-10-16T08:03:23;3.83;;;3.45;;
75758;SDS011;64371;47.566;19.086;2022-10-16T08:06:26;3.55;;;3.17;;
75758;SDS011;64371;47.566;19.086;2022-10-16T08:09:29;4.07;;;3.57;;
75758;SDS011;64371;47.566;19.086;2022-10-16T08:12:31;3.83;;;3.30;;
75758;SDS011;64371;47.566;19.086;2022-10-16T08:15:36;4.35;;;3.20;;
75758;SDS011;64371;47.566;19.086;2022-10-16T08:18:39;3.72;;;3.33;;
75758;SDS011;64371;47.566;19.086;2022-10-16T08:21:42;3.80;;;3.40;;
75758;SDS011;64371;47.566;19.086;2022-10-16T08:24:44;4.20;;;3.80;;
75758;SDS011;64371;47.566;19.086;2022-10-16T08:27:46;3.80;;;3.33;;
75758;SDS011;64371;47.566;19.086;2022-10-16T08:30:49;3.90;;;3.50;;
75758;SDS011;64371;47.566;19.086;2022-10-16T08:33:51;4.13;;;3.40;;
75758;SDS011;64371;47.566;19.086;2022-10-16T08:36:54;4.40;;;3.70;;
75758;SDS011;64371;47.566;19.086;2022-10-16T08:39:57;3.70;;;3.40;;
75758;SDS011;64371;47.566;19.086;2022-10-16T08:46:37;3.90;;;3.50;;
75758;SDS011;64371;47.566;19.086;2022-10-16T08:53:01;3.95;;;3.35;;
75758;SDS011;64371;47.566;19.086;2022-10-16T08:56:06;3.83;;;3.43;;
75758;SDS011;64371;47.566;19.086;2022-10-16T08:59:10;4.32;;;3.47;;
75758;SDS011;64371;47.566;19.086;2022-10-16T09:02:22;4.00;;;3.60;;
75758;SDS011;64371;47.566;19.086;2022-10-16T09:09:06;3.85;;;3.33;;
75758;SDS011;64371;47.566;19.086;2022-10-16T09:12:12;4.57;;;3.30;;
75758;SDS011;64371;47.566;19.086;2022-10-16T09:15:32;3.80;;;3.40;;
75758;SDS011;64371;47.566;19.086;2022-10-16T09:22:04;3.65;;;3.35;;
75758;SDS011;64371;47.566;19.086;2022-10-16T09:25:15;3.60;;;3.30;;
75758;SDS011;64371;47.566;19.086;2022-10-16T09:28:19;3.60;;;3.30;;
75758;SDS011;64371;47.566;19.086;2022-10-16T09:31:22;3.90;;;3.60;;
75758;SDS011;64371;47.566;19.086;2022-10-16T09:37:46;4.10;;;3.70;;
75758;SDS011;64371;47.566;19.086;2022-10-16T09:40:52;4.13;;;3.42;;
75758;SDS011;64371;47.566;19.086;2022-10-16T09:44:03;3.40;;;3.10;;
75758;SDS011;64371;47.566;19.086;2022-10-16T09:47:15;3.65;;;3.25;;
75758;SDS011;64371;47.566;19.086;2022-10-16T09:53:26;4.80;;;3.40;;
75758;SDS011;64371;47.566;19.086;2022-10-16T09:56:40;3.47;;;3.17;;
75758;SDS011;64371;47.566;19.086;2022-10-16T09:59:46;3.70;;;3.30;;
75758;SDS011;64371;47.566;19.086;2022-10-16T10:02:58;3.58;;;3.17;;
75758;SDS011;64371;47.566;19.086;2022-10-16T10:06:03;4.03;;;3.50;;
75758;SDS011;64371;47.566;19.086;2022-10-16T10:09:29;3.70;;;3.33;;
75758;SDS011;64371;47.566;19.086;2022-10-16T10:12:38;4.18;;;3.80;;
75758;SDS011;64371;47.566;19.086;2022-10-16T10:15:41;4.00;;;3.40;;
75758;SDS011;64371;47.566;19.086;2022-10-16T10:18:43;4.18;;;3.70;;
75758;SDS011;64371;47.566;19.086;2022-10-16T10:21:46;4.10;;;3.70;;
75758;SDS011;64371;47.566;19.086;2022-10-16T10:25:07;3.50;;;3.20;;
75758;SDS011;64371;47.566;19.086;2022-10-16T10:28:18;3.80;;;3.30;;
75758;SDS011;64371;47.566;19.086;2022-10-16T10:31:27;5.23;;;4.07;;
75758;SDS011;64371;47.566;19.086;2022-10-16T10:38:06;4.18;;;3.78;;
75758;SDS011;64371;47.566;19.086;2022-10-16T10:55:36;3.80;;;3.42;;
75758;SDS011;64371;47.566;19.086;2022-10-16T10:58:50;3.70;;;3.40;;
75758;SDS011;64371;47.566;19.086;2022-10-16T11:01:56;3.83;;;2.95;;
75758;SDS011;64371;47.566;19.086;2022-10-16T11:08:37;4.15;;;3.75;;
75758;SDS011;64371;47.566;19.086;2022-10-16T11:11:45;3.95;;;3.55;;
75758;SDS011;64371;47.566;19.086;2022-10-16T11:21:51;4.07;;;3.60;;
75758;SDS011;64371;47.566;19.086;2022-10-16T11:25:35;5.15;;;3.90;;
75758;SDS011;64371;47.566;19.086;2022-10-16T11:28:37;4.30;;;3.70;;
75758;SDS011;64371;47.566;19.086;2022-10-16T11:31:49;5.63;;;3.58;;
75758;SDS011;64371;47.566;19.086;2022-10-16T11:34:59;4.10;;;3.70;;
75758;SDS011;64371;47.566;19.086;2022-10-16T11:41:52;4.25;;;3.85;;
75758;SDS011;64371;47.566;19.086;2022-10-16T11:45:27;3.95;;;3.55;;
75758;SDS011;64371;47.566;19.086;2022-10-16T11:49:30;5.80;;;3.92;;
75758;SDS011;64371;47.566;19.086;2022-10-16T11:55:50;4.23;;;3.30;;
75758;SDS011;64371;47.566;19.086;2022-10-16T11:58:54;4.07;;;3.67;;
75758;SDS011;64371;47.566;19.086;2022-10-16T12:08:54;3.78;;;3.38;;
75758;SDS011;64371;47.566;19.086;2022-10-16T12:11:58;3.90;;;3.50;;
75758;SDS011;64371;47.566;19.086;2022-10-16T12:15:03;4.50;;;3.90;;
75758;SDS011;64371;47.566;19.086;2022-10-16T12:18:44;3.92;;;3.38;;
75758;SDS011;64371;47.566;19.086;2022-10-16T12:21:47;3.90;;;3.50;;
75758;SDS011;64371;47.566;19.086;2022-10-16T12:24:52;3.80;;;3.40;;
75758;SDS011;64371;47.566;19.086;2022-10-16T12:27:55;4.20;;;3.80;;
75758;SDS011;64371;47.566;19.086;2022-10-16T12:31:01;4.22;;;3.70;;
75758;SDS011;64371;47.566;19.086;2022-10-16T12:34:05;3.80;;;3.40;;
75758;SDS011;64371;47.566;19.086;2022-10-16T12:37:08;3.80;;;3.50;;
75758;SDS011;64371;47.566;19.086;2022-10-16T12:40:25;3.70;;;3.40;;
75758;SDS011;64371;47.566;19.086;2022-10-16T12:46:35;3.92;;;3.53;;
75758;SDS011;64371;47.566;19.086;2022-10-16T12:49:47;3.60;;;3.28;;
75758;SDS011;64371;47.566;19.086;2022-10-16T12:52:51;3.90;;;3.40;;
75758;SDS011;64371;47.566;19.086;2022-10-16T12:56:04;3.90;;;3.50;;
75758;SDS011;64371;47.566;19.086;2022-10-16T12:59:20;3.70;;;3.40;;
75758;SDS011;64371;47.566;19.086;2022-10-16T13:19:28;3.88;;;3.38;;
75758;SDS011;64371;47.566;19.086;2022-10-16T13:29:23;4.18;;;3.60;;
75758;SDS011;64371;47.566;19.086;2022-10-16T13:32:25;3.80;;;3.40;;
75758;SDS011;64371;47.566;19.086;2022-10-16T13:35:29;4.18;;;3.38;;
75758;SDS011;64371;47.566;19.086;2022-10-16T13:38:34;4.78;;;3.53;;
75758;SDS011;64371;47.566;19.086;2022-10-16T13:41:40;3.80;;;3.40;;
75758;SDS011;64371;47.566;19.086;2022-10-16T13:44:43;4.72;;;3.97;;
75758;SDS011;64371;47.566;19.086;2022-10-16T13:47:48;4.17;;;3.50;;
75758;SDS011;64371;47.566;19.086;2022-10-16T13:51:11;3.88;;;3.38;;
75758;SDS011;64371;47.566;19.086;2022-10-16T13:54:15;4.05;;;3.63;;
75758;SDS011;64371;47.566;19.086;2022-10-16T13:57:18;3.65;;;3.35;;
75758;SDS011;64371;47.566;19.086;2022-10-16T14:00:28;4.10;;;3.70;;
75758;SDS011;64371;47.566;19.086;2022-10-16T14:03:33;3.80;;;3.40;;
75758;SDS011;64371;47.566;19.086;2022-10-16T14:06:40;3.60;;;3.30;;
75758;SDS011;64371;47.566;19.086;2022-10-16T14:09:47;4.28;;;3.42;;
75758;SDS011;64371;47.566;19.086;2022-10-16T14:12:55;4.15;;;3.50;;
75758;SDS011;64371;47.566;19.086;2022-10-16T14:16:01;4.20;;;3.40;;
75758;SDS011;64371;47.566;19.086;2022-10-16T14:19:27;4.30;;;3.37;;
75758;SDS011;64371;47.566;19.086;2022-10-16T14:22:32;3.53;;;3.22;;
75758;SDS011;64371;47.566;19.086;2022-10-16T14:25:36;4.10;;;3.60;;
75758;SDS011;64371;47.566;19.086;2022-10-16T14:28:38;3.55;;;3.25;;
75758;SDS011;64371;47.566;19.086;2022-10-16T14:31:42;3.67;;;3.38;;
75758;SDS011;64371;47.566;19.086;2022-10-16T14:34:56;3.83;;;3.43;;
75758;SDS011;64371;47.566;19.086;2022-10-16T14:37:59;3.75;;;3.40;;
75758;SDS011;64371;47.566;19.086;2022-10-16T14:41:03;4.45;;;3.28;;
75758;SDS011;64371;47.566;19.086;2022-10-16T14:44:06;3.47;;;3.15;;
75758;SDS011;64371;47.566;19.086;2022-10-16T14:47:16;3.53;;;3.22;;
75758;SDS011;64371;47.566;19.086;2022-10-16T14:50:24;3.60;;;3.27;;
75758;SDS011;64371;47.566;19.086;2022-10-16T14:53:26;4.07;;;3.50;;
75758;SDS011;64371;47.566;19.086;2022-10-16T14:56:50;4.57;;;3.40;;
75758;SDS011;64371;47.566;19.086;2022-10-16T14:59:51;3.70;;;3.40;;
75758;SDS011;64371;47.566;19.086;2022-10-16T15:02:53;4.45;;;3.10;;
75758;SDS011;64371;47.566;19.086;2022-10-16T15:05:55;4.57;;;3.77;;
75758;SDS011;64371;47.566;19.086;2022-10-16T15:08:57;4.35;;;3.38;;
75758;SDS011;64371;47.566;19.086;2022-10-16T15:12:00;3.35;;;3.03;;
75758;SDS011;64371;47.566;19.086;2022-10-16T15:15:08;3.55;;;3.20;;
75758;SDS011;64371;47.566;19.086;2022-10-16T15:18:16;3.60;;;3.30;;
75758;SDS011;64371;47.566;19.086;2022-10-16T15:21:26;3.70;;;3.33;;
75758;SDS011;64371;47.566;19.086;2022-10-16T15:24:30;4.47;;;3.15;;
75758;SDS011;64371;47.566;19.086;2022-10-16T15:27:33;4.15;;;3.53;;
75758;SDS011;64371;47.566;19.086;2022-10-16T15:30:41;4.60;;;3.20;;
75758;SDS011;64371;47.566;19.086;2022-10-16T15:33:49;4.15;;;3.45;;
75758;SDS011;64371;47.566;19.086;2022-10-16T15:36:55;3.70;;;3.30;;
75758;SDS011;64371;47.566;19.086;2022-10-16T15:39:59;3.70;;;3.40;;
75758;SDS011;64371;47.566;19.086;2022-10-16T15:43:01;3.35;;;2.90;;
75758;SDS011;64371;47.566;19.086;2022-10-16T15:46:05;3.45;;;3.15;;
75758;SDS011;64371;47.566;19.086;2022-10-16T15:49:09;3.45;;;3.10;;
75758;SDS011;64371;47.566;19.086;2022-10-16T15:52:11;3.57;;;3.17;;
75758;SDS011;64371;47.566;19.086;2022-10-16T15:55:14;3.50;;;3.20;;
75758;SDS011;64371;47.566;19.086;2022-10-16T15:58:16;3.50;;;3.20;;
75758;SDS011;64371;47.566;19.086;2022-10-16T16:01:19;3.38;;;2.97;;
75758;SDS011;64371;47.566;19.086;2022-10-16T16:04:21;3.50;;;3.20;;
75758;SDS011;64371;47.566;19.086;2022-10-16T16:07:44;5.10;;;3.60;;
75758;SDS011;64371;47.566;19.086;2022-10-16T16:10:56;4.60;;;3.20;;
75758;SDS011;64371;47.566;19.086;2022-10-16T16:14:10;3.55;;;3.25;;
75758;SDS011;64371;47.566;19.086;2022-10-16T16:17:14;3.60;;;3.30;;
75758;SDS011;64371;47.566;19.086;2022-10-16T16:20:17;3.40;;;3.10;;
75758;SDS011;64371;47.566;19.086;2022-10-16T16:23:19;3.70;;;3.30;;
75758;SDS011;64371;47.566;19.086;2022-10-16T16:26:22;3.17;;;2.88;;
75758;SDS011;64371;47.566;19.086;2022-10-16T16:29:27;3.25;;;2.95;;
75758;SDS011;64371;47.566;19.086;2022-10-16T16:32:30;3.45;;;3.15;;
75758;SDS011;64371;47.566;19.086;2022-10-16T16:35:32;3.35;;;3.03;;
75758;SDS011;64371;47.566;19.086;2022-10-16T16:38:34;3.63;;;3.20;;
75758;SDS011;64371;47.566;19.086;2022-10-16T16:41:37;3.83;;;2.92;;
75758;SDS011;64371;47.566;19.086;2022-10-16T16:44:39;3.10;;;2.80;;
75758;SDS011;64371;47.566;19.086;2022-10-16T16:47:41;3.53;;;3.20;;
75758;SDS011;64371;47.566;19.086;2022-10-16T16:50:43;3.28;;;2.88;;
75758;SDS011;64371;47.566;19.086;2022-10-16T16:53:46;3.30;;;2.97;;
75758;SDS011;64371;47.566;19.086;2022-10-16T16:56:53;4.32;;;3.22;;
75758;SDS011;64371;47.566;19.086;2022-10-16T16:59:56;3.53;;;3.22;;
75758;SDS011;64371;47.566;19.086;2022-10-16T17:02:58;3.47;;;2.95;;
75758;SDS011;64371;47.566;19.086;2022-10-16T17:06:02;3.78;;;3.05;;
75758;SDS011;64371;47.566;19.086;2022-10-16T17:09:07;3.23;;;2.90;;
75758;SDS011;64371;47.566;19.086;2022-10-16T17:12:11;3.45;;;3.00;;
75758;SDS011;64371;47.566;19.086;2022-10-16T17:15:13;3.33;;;3.00;;
75758;SDS011;64371;47.566;19.086;2022-10-16T17:18:15;3.22;;;2.92;;
75758;SDS011;64371;47.566;19.086;2022-10-16T17:21:19;3.80;;;3.13;;
75758;SDS011;64371;47.566;19.086;2022-10-16T17:24:21;3.60;;;3.30;;
75758;SDS011;64371;47.566;19.086;2022-10-16T17:27:23;3.22;;;2.92;;
75758;SDS011;64371;47.566;19.086;2022-10-16T17:30:26;4.22;;;3.10;;
75758;SDS011;64371;47.566;19.086;2022-10-16T17:33:28;3.30;;;3.00;;
75758;SDS011;64371;47.566;19.086;2022-10-16T17:36:31;3.47;;;3.00;;
75758;SDS011;64371;47.566;19.086;2022-10-16T17:39:35;3.20;;;2.90;;
75758;SDS011;64371;47.566;19.086;2022-10-16T17:42:38;3.45;;;3.15;;
75758;SDS011;64371;47.566;19.086;2022-10-16T17:45:40;3.38;;;3.08;;
75758;SDS011;64371;47.566;19.086;2022-10-16T17:48:43;4.15;;;3.08;;
75758;SDS011;64371;47.566;19.086;2022-10-16T17:51:50;3.10;;;2.80;;
75758;SDS011;64371;47.566;19.086;2022-10-16T17:54:53;4.33;;;3.27;;
75758;SDS011;64371;47.566;19.086;2022-10-16T17:57:57;3.72;;;3.10;;
75758;SDS011;64371;47.566;19.086;2022-10-16T18:00:59;3.13;;;2.83;;
75758;SDS011;64371;47.566;19.086;2022-10-16T18:04:03;3.78;;;2.90;;
75758;SDS011;64371;47.566;19.086;2022-10-16T18:07:08;3.50;;;3.20;;
75758;SDS011;64371;47.566;19.086;2022-10-16T18:10:10;3.50;;;2.97;;
75758;SDS011;64371;47.566;19.086;2022-10-16T18:13:13;3.42;;;3.13;;
75758;SDS011;64371;47.566;19.086;2022-10-16T18:16:16;3.30;;;3.00;;
75758;SDS011;64371;47.566;19.086;2022-10-16T18:19:18;3.35;;;2.92;;
75758;SDS011;64371;47.566;19.086;2022-10-16T18:22:21;3.58;;;3.28;;
75758;SDS011;64371;47.566;19.086;2022-10-16T18:25:23;3.57;;;2.93;;
75758;SDS011;64371;47.566;19.086;2022-10-16T18:28:25;3.33;;;3.03;;
75758;SDS011;64371;47.566;19.086;2022-10-16T18:31:28;3.13;;;2.83;;
75758;SDS011;64371;47.566;19.086;2022-10-16T18:34:32;3.28;;;2.97;;
75758;SDS011;64371;47.566;19.086;2022-10-16T18:37:37;3.40;;;3.10;;
75758;SDS011;64371;47.566;19.086;2022-10-16T18:40:39;3.87;;;3.50;;
75758;SDS011;64371;47.566;19.086;2022-10-16T18:43:42;3.85;;;3.40;;
75758;SDS011;64371;47.566;19.086;2022-10-16T18:46:44;3.63;;;3.33;;
75758;SDS011;64371;47.566;19.086;2022-10-16T18:49:49;3.47;;;3.13;;
75758;SDS011;64371;47.566;19.086;2022-10-16T18:52:52;3.47;;;3.08;;
75758;SDS011;64371;47.566;19.086;2022-10-16T18:55:54;3.33;;;3.03;;
75758;SDS011;64371;47.566;19.086;2022-10-16T18:59:00;3.38;;;3.03;;
75758;SDS011;64371;47.566;19.086;2022-10-16T19:02:04;3.10;;;2.80;;
75758;SDS011;64371;47.566;19.086;2022-10-16T19:05:06;3.30;;;3.00;;
75758;SDS011;64371;47.566;19.086;2022-10-16T19:08:15;4.13;;;3.40;;
75758;SDS011;64371;47.566;19.086;2022-10-16T19:11:18;3.47;;;3.17;;
75758;SDS011;64371;47.566;19.086;2022-10-16T19:14:21;3.83;;;3.22;;
75758;SDS011;64371;47.566;19.086;2022-10-16T19:17:24;3.78;;;3.05;;
75758;SDS011;64371;47.566;19.086;2022-10-16T19:20:26;3.40;;;3.10;;
75758;SDS011;64371;47.566;19.086;2022-10-16T19:23:28;3.95;;;3.40;;
75758;SDS011;64371;47.566;19.086;2022-10-16T19:26:31;3.50;;;3.20;;
75758;SDS011;64371;47.566;19.086;2022-10-16T19:29:38;4.47;;;3.22;;
75758;SDS011;64371;47.566;19.086;2022-10-16T19:32:41;3.78;;;3.47;;
75758;SDS011;64371;47.566;19.086;2022-10-16T19:35:43;4.30;;;3.22;;
75758;SDS011;64371;47.566;19.086;2022-10-16T19:38:46;4.00;;;3.55;;
75758;SDS011;64371;47.566;19.086;2022-10-16T19:41:48;4.63;;;3.70;;
75758;SDS011;64371;47.566;19.086;2022-10-16T19:44:50;3.83;;;3.33;;
75758;SDS011;64371;47.566;19.086;2022-10-16T19:47:52;3.75;;;3.33;;
75758;SDS011;64371;47.566;19.086;2022-10-16T19:50:55;4.35;;;3.17;;
75758;SDS011;64371;47.566;19.086;2022-10-16T19:53:58;3.88;;;3.50;;
75758;SDS011;64371;47.566;19.086;2022-10-16T19:57:02;3.27;;;2.97;;
75758;SDS011;64371;47.566;19.086;2022-10-16T20:00:04;3.53;;;3.22;;
75758;SDS011;64371;47.566;19.086;2022-10-16T20:03:07;3.78;;;3.47;;